Startpagina
METAR-TAF:

METAR-TAF

Vliegvelden :

Aeropuerto Internacional El Dorado

Bogota, Colombia

breedte: 04-43N, lengte: 074-09W, hoogte: 2547 m

Actueel weer

Dit bericht is 57 minuten geleden gemaakt, om 07:00 UTC
Weinig wind
Temperatuur 10°C
Vochtigheid 93%
Druk 1025 hPa
Zicht 10 km of meer
Weinig wolken op 1700 ft

METAR: SKBO 230700Z 00000KT 9999 FEW017 10/09 A3027

Tijdstip: 02:57 (07:57 UTC)

Verwachting

Dit bericht is 2 uur en het 57 minuten geleden gemaakt, om 05:00 UTC
Verwachting geldig van 23 om 06 UTC tot 24 om 06 UTC
Wind 6 kt uit het oostnoordoosten
Zicht 10 km of meer
Weinig wolken op 2000 ft
Verspreide wolken op 9000 ft
Tijdelijke
van 23 om 10 UTC tot 23 om 14 UTC
Wind 10 kt uit het noordwesten
Verspreide wolken op 1700 ft
Gebroken wolken op 9000 ft
Wijzigt naar
van 23 om 14 UTC tot 23 om 16 UTC
Wind 12 kt uit het zuidzuidoosten

TAF: SKBO 230500Z 2306/2406 07006KT 9999 FEW020 SCT090 TEMPO 2310/2314 32010KT SCT017 BKN090 BECMG 2314/2316 15012KT TX20/2318Z TN09/2311Z

Waarnemingen en weersverwachtingen van meer dan 4000 vliegvelden (METAR en TAF).

De beschikbare stations zijn de gele en rode punten op de kaart.

Ga met uw muis naar het station om de naam te zien.

Klik dan om waarnemingen en weersverwachtingen te zien.

kaart wijzigen: klik op de groene knoppen met een zwart kruis om in te zoomen, op de groene knop met een streepje om uit te zoomen of op de groene pijlen voor aangrenzende kaarten.


METAR-TAF: